createdAt,value
2023-04-19T03:39:00.297Z,9.80
2023-04-19T03:49:36.199Z,9.80
2023-04-19T04:00:14.428Z,9.80
2023-04-19T04:10:49.866Z,9.80
2023-04-19T04:21:27.112Z,9.80
2023-04-19T04:32:08.613Z,9.70
2023-04-19T04:42:47.627Z,9.60
2023-04-19T04:53:27.516Z,9.50
2023-04-19T05:04:03.721Z,9.50
2023-04-19T05:14:39.478Z,9.90
2023-04-19T05:25:15.210Z,9.70
2023-04-19T05:35:51.334Z,9.80
2023-04-19T05:46:27.181Z,10.30
2023-04-19T05:57:04.360Z,11.40
2023-04-19T06:07:43.994Z,11.80
2023-04-19T06:18:29.913Z,12.90
2023-04-19T06:29:06.220Z,15.20
2023-04-19T06:39:41.852Z,11.90
2023-04-19T06:50:17.721Z,11.60
2023-04-19T07:00:53.348Z,11.60
2023-04-19T07:11:28.892Z,11.30
2023-04-19T07:22:06.127Z,11.40
2023-04-19T07:32:41.895Z,11.50
2023-04-19T07:43:17.956Z,11.80
2023-04-19T07:53:54.103Z,11.90
2023-04-19T08:04:30.326Z,11.90
2023-04-19T08:15:25.702Z,12.00
2023-04-19T08:26:03.802Z,12.70
2023-04-19T08:36:48.342Z,12.80
2023-04-19T08:47:32.271Z,12.60
2023-04-19T08:58:15.384Z,12.70
2023-04-19T09:19:55.533Z,12.90
2023-04-19T09:30:34.113Z,12.80
2023-04-19T09:41:17.320Z,12.70
2023-04-19T09:51:55.714Z,12.40
2023-04-19T10:02:33.116Z,13.50
2023-04-19T10:13:19.604Z,20.40
2023-04-19T10:23:57.574Z,15.80
2023-04-19T10:34:42.459Z,15.50
2023-04-19T10:45:35.207Z,15.20
2023-04-19T10:56:11.450Z,16.00
2023-04-19T11:06:52.939Z,15.50
2023-04-19T11:17:31.981Z,16.50
2023-04-19T11:28:07.898Z,16.50
2023-04-19T11:38:47.872Z,15.30
2023-04-19T11:49:31.878Z,15.50
2023-04-19T12:00:12.385Z,15.30
2023-04-19T12:10:58.300Z,15.30
2023-04-19T12:21:33.798Z,15.50
2023-04-19T12:32:11.119Z,15.60
2023-04-19T12:42:47.197Z,15.90
2023-04-19T12:53:24.184Z,15.50
2023-04-19T13:03:59.951Z,15.50
2023-04-19T13:14:35.918Z,15.10
2023-04-19T13:25:11.653Z,15.60
2023-04-19T13:35:47.569Z,15.60
2023-04-19T13:46:23.433Z,15.40
2023-04-19T13:56:59.303Z,15.30
2023-04-19T14:07:35.097Z,15.20
2023-04-19T14:18:11.106Z,15.10
2023-04-19T14:28:46.829Z,15.30
2023-04-19T14:39:22.448Z,15.40
2023-04-19T14:49:58.075Z,15.20
2023-04-19T15:00:33.996Z,15.40
2023-04-19T15:11:09.813Z,15.40
2023-04-19T15:21:45.472Z,15.40
2023-04-19T15:32:21.346Z,15.10
2023-04-19T15:42:56.837Z,14.90
2023-04-19T15:53:32.650Z,14.40
2023-04-19T16:04:08.590Z,14.40
2023-04-19T16:14:44.478Z,14.20
2023-04-19T16:25:20.468Z,14.60
2023-04-19T16:35:56.254Z,14.10
2023-04-19T16:46:32.032Z,13.70
2023-04-19T16:57:07.770Z,13.50
2023-04-19T17:07:43.857Z,13.30
2023-04-19T17:18:19.177Z,13.10
2023-04-19T17:28:54.453Z,12.90
2023-04-19T17:39:30.612Z,12.70
2023-04-19T17:50:07.456Z,12.30
2023-04-19T18:00:43.197Z,12.10
2023-04-19T18:11:18.716Z,11.80
2023-04-19T18:21:54.620Z,11.60
2023-04-19T18:32:31.918Z,11.20
2023-04-19T18:43:07.637Z,10.90
2023-04-19T18:53:45.372Z,10.80
2023-04-19T19:04:42.886Z,10.50
2023-04-19T19:15:18.933Z,10.60
2023-04-19T19:25:54.589Z,10.40
2023-04-19T19:36:30.936Z,10.20
2023-04-19T19:47:10.304Z,9.90
2023-04-19T20:08:25.442Z,9.30
2023-04-19T20:19:09.397Z,9.40
2023-04-19T20:29:44.881Z,9.40
2023-04-19T20:40:22.822Z,9.30
2023-04-19T20:50:58.293Z,9.20
2023-04-19T21:01:34.293Z,8.60
2023-04-19T21:12:10.357Z,8.20
2023-04-19T21:22:47.074Z,8.10
